Time;durP1;ratioP1;P1;durP2;ratioP2;P2;SDS_P1;SDS_P2;PMS_P1;PMS_P2;Temp;Humidity;BMP_temperature;BMP_pressure;BME280_temperature;BME280_humidity;BME280_pressure;Samples;Min_cycle;Max_cycle;Signal;HPM_P1;HPM_P2
2023/12/02 00:00:48;;;;;;;29.40;13.32;;;0.90;99.90;;;;;;6271672;28;20154;-91
2023/12/02 00:03:50;;;;;;;28.30;11.98;;;0.90;99.90;;;;;;6285714;28;20060;-88
2023/12/02 00:06:52;;;;;;;22.48;10.93;;;0.90;99.90;;;;;;6270717;28;20397;-86
2023/12/02 00:09:54;;;;;;;23.50;10.90;;;0.90;99.90;;;;;;6298945;28;20064;-91
2023/12/02 00:12:55;;;;;;;24.13;11.40;;;0.80;99.90;;;;;;6278541;28;20118;-91
2023/12/02 00:15:57;;;;;;;23.85;10.70;;;0.90;99.90;;;;;;6272701;28;20634;-89
2023/12/02 00:18:59;;;;;;;27.58;11.02;;;0.90;99.90;;;;;;6295221;28;20416;-89
2023/12/02 00:22:01;;;;;;;23.95;10.98;;;0.90;99.90;;;;;;6297087;28;20051;-89
2023/12/02 00:25:02;;;;;;;27.15;11.30;;;0.90;99.90;;;;;;6285164;28;20416;-87
2023/12/02 00:28:04;;;;;;;26.75;11.18;;;0.90;99.90;;;;;;6299165;28;20044;-89
2023/12/02 00:31:06;;;;;;;26.25;12.13;;;1.00;99.90;;;;;;6289935;28;20049;-89
2023/12/02 00:34:07;;;;;;;27.73;12.02;;;1.00;99.90;;;;;;6302427;28;20047;-87
2023/12/02 00:37:09;;;;;;;26.63;11.35;;;0.90;99.90;;;;;;6286703;28;20341;-86
2023/12/02 00:40:11;;;;;;;28.05;11.95;;;1.00;99.90;;;;;;6303261;28;20049;-86
2023/12/02 00:43:12;;;;;;;27.27;12.32;;;1.00;99.90;;;;;;6290447;28;20451;-87
2023/12/02 00:46:14;;;;;;;27.88;12.23;;;0.90;99.90;;;;;;6292376;28;20049;-86
2023/12/02 00:49:15;;;;;;;29.38;12.30;;;0.90;99.90;;;;;;6307852;28;20049;-86
2023/12/02 00:52:17;;;;;;;25.33;11.77;;;0.90;99.90;;;;;;6284721;28;20058;-87
2023/12/02 00:55:18;;;;;;;29.00;11.73;;;1.00;99.90;;;;;;6310097;28;20475;-86
2023/12/02 00:58:20;;;;;;;27.42;11.45;;;1.00;99.90;;;;;;6293475;28;20044;-88
2023/12/02 01:01:32;;;;;;;25.60;11.82;;;0.90;99.90;;;;;;6260026;28;20041;-87
2023/12/02 01:04:33;;;;;;;24.83;10.82;;;1.00;99.90;;;;;;6309116;28;20081;-87
2023/12/02 01:07:35;;;;;;;25.27;11.52;;;0.90;99.90;;;;;;6282442;28;20111;-87
2023/12/02 01:10:37;;;;;;;22.27;10.27;;;0.90;99.90;;;;;;6302795;28;20052;-87
2023/12/02 01:13:38;;;;;;;21.52;9.90;;;0.80;99.90;;;;;;6283139;28;20480;-88
2023/12/02 01:16:40;;;;;;;22.50;9.90;;;0.90;99.90;;;;;;6279573;28;20052;-89
2023/12/02 01:19:41;;;;;;;22.95;10.27;;;0.80;99.90;;;;;;6281995;28;20492;-90
2023/12/02 01:22:43;;;;;;;24.58;10.90;;;0.90;99.90;;;;;;6298494;28;20186;-88
2023/12/02 01:25:45;;;;;;;23.25;10.63;;;0.90;99.90;;;;;;6276898;28;20053;-89
2023/12/02 01:28:46;;;;;;;25.92;10.38;;;0.90;99.90;;;;;;6285443;28;20036;-89
2023/12/02 01:31:48;;;;;;;22.58;10.07;;;0.80;99.90;;;;;;6279445;28;20057;-88
2023/12/02 01:34:49;;;;;;;24.88;10.10;;;0.80;99.90;;;;;;6297157;28;20076;-89
2023/12/02 01:37:51;;;;;;;24.50;10.07;;;0.80;99.90;;;;;;6309656;28;20492;-89
2023/12/02 01:40:52;;;;;;;22.02;10.57;;;0.80;99.90;;;;;;6281301;28;20045;-89
2023/12/02 01:43:54;;;;;;;24.83;10.85;;;0.80;99.90;;;;;;6284552;28;20120;-88
2023/12/02 01:46:56;;;;;;;27.88;11.60;;;0.80;99.90;;;;;;6299255;28;20052;-87
2023/12/02 01:49:57;;;;;;;25.77;10.93;;;0.90;99.90;;;;;;6274138;28;20049;-88
2023/12/02 01:52:59;;;;;;;26.63;10.85;;;0.90;99.90;;;;;;6287167;28;20048;-88
2023/12/02 01:56:01;;;;;;;23.73;10.93;;;0.90;99.90;;;;;;6278961;28;20060;-89
2023/12/02 01:59:03;;;;;;;24.20;11.23;;;1.00;99.90;;;;;;6280131;28;20518;-87
2023/12/02 02:02:04;;;;;;;25.27;10.43;;;1.00;99.90;;;;;;6298936;28;20048;-88
2023/12/02 02:05:06;;;;;;;24.17;11.25;;;1.10;99.90;;;;;;6275537;28;20104;-88
2023/12/02 02:08:08;;;;;;;27.95;11.82;;;1.10;99.90;;;;;;6299609;28;20512;-89
2023/12/02 02:11:10;;;;;;;24.48;10.55;;;1.00;99.90;;;;;;6276659;28;20064;-88
2023/12/02 02:14:11;;;;;;;28.08;11.48;;;1.10;99.90;;;;;;6279196;28;20052;-88
2023/12/02 02:17:13;;;;;;;31.77;11.80;;;1.10;99.90;;;;;;6285792;28;20496;-89
2023/12/02 02:20:15;;;;;;;25.95;11.52;;;1.20;99.90;;;;;;6296295;28;20816;-88
2023/12/02 02:23:16;;;;;;;27.77;11.07;;;1.20;99.90;;;;;;6293881;28;20059;-89
2023/12/02 02:26:18;;;;;;;26.63;10.77;;;1.20;99.90;;;;;;6277792;28;20048;-88
2023/12/02 02:29:19;;;;;;;25.65;11.35;;;1.20;99.90;;;;;;6275635;28;20114;-88
2023/12/02 02:32:21;;;;;;;26.42;11.52;;;1.20;99.90;;;;;;6298588;28;20133;-88
2023/12/02 02:35:22;;;;;;;24.80;11.10;;;1.20;99.90;;;;;;6275000;28;20055;-88
2023/12/02 02:38:24;;;;;;;26.70;11.27;;;1.20;99.90;;;;;;6299434;28;20523;-88
2023/12/02 02:41:26;;;;;;;23.42;10.18;;;1.20;99.90;;;;;;6274690;28;20045;-89
2023/12/02 02:44:27;;;;;;;25.52;10.80;;;1.20;99.90;;;;;;6284268;28;20060;-89
2023/12/02 02:47:29;;;;;;;24.83;10.65;;;1.20;99.90;;;;;;6288807;28;20044;-89
2023/12/02 02:50:30;;;;;;;29.15;11.15;;;1.20;99.90;;;;;;6281325;28;20106;-87
2023/12/02 02:53:32;;;;;;;24.35;11.00;;;1.20;99.90;;;;;;6273601;28;20056;-88
2023/12/02 02:56:34;;;;;;;24.35;10.88;;;1.10;99.90;;;;;;6298958;28;20455;-87
2023/12/02 02:59:35;;;;;;;23.13;10.40;;;1.20;99.90;;;;;;6273508;28;20417;-87
2023/12/02 03:02:37;;;;;;;24.25;10.27;;;1.20;99.90;;;;;;6276805;28;20049;-88
2023/12/02 03:05:39;;;;;;;24.38;11.07;;;1.20;99.90;;;;;;6287397;28;20049;-87
2023/12/02 03:08:40;;;;;;;26.05;11.30;;;1.20;99.90;;;;;;6285900;28;20062;-88
2023/12/02 03:11:42;;;;;;;24.02;10.10;;;1.10;99.90;;;;;;6286043;28;20135;-87
2023/12/02 03:14:43;;;;;;;23.55;10.13;;;1.10;99.90;;;;;;6285081;28;20500;-88
2023/12/02 03:17:45;;;;;;;25.70;10.70;;;1.10;99.90;;;;;;6305282;28;20082;-87
2023/12/02 03:20:47;;;;;;;24.83;10.55;;;1.10;99.90;;;;;;6309126;28;20109;-88
2023/12/02 03:23:48;;;;;;;22.55;9.68;;;1.10;99.90;;;;;;6297176;28;20123;-88
2023/12/02 03:26:51;;;;;;;21.95;9.70;;;1.10;99.90;;;;;;6273454;28;20052;-87
2023/12/02 03:29:52;;;;;;;22.63;10.15;;;1.10;99.90;;;;;;6290563;28;21570;-88
2023/12/02 03:32:54;;;;;;;20.95;9.45;;;1.10;99.90;;;;;;6273351;28;20049;-87
2023/12/02 03:35:56;;;;;;;26.52;11.23;;;1.10;99.90;;;;;;6300148;28;20048;-88
2023/12/02 03:38:57;;;;;;;25.20;10.23;;;1.00;99.90;;;;;;6275756;28;20049;-85
2023/12/02 03:41:59;;;;;;;24.77;10.55;;;1.00;99.90;;;;;;6316415;28;20036;-87
2023/12/02 03:45:02;;;;;;;22.45;9.98;;;1.00;99.90;;;;;;6272747;28;20143;-91
2023/12/02 03:48:03;;;;;;;23.75;9.93;;;1.00;99.90;;;;;;5327733;22;20065;-85
2023/12/02 03:51:05;;;;;;;26.63;10.73;;;1.00;99.90;;;;;;6266339;28;20059;-88
2023/12/02 03:54:07;;;;;;;27.58;10.43;;;1.00;99.90;;;;;;6259718;28;20208;-89
2023/12/02 03:57:09;;;;;;;23.23;10.43;;;0.90;99.90;;;;;;6248821;28;20548;-87
2023/12/02 04:00:11;;;;;;;22.42;10.23;;;1.00;99.90;;;;;;6262646;28;20052;-87
2023/12/02 04:03:13;;;;;;;23.45;10.45;;;1.00;99.90;;;;;;6234448;28;20053;-86
2023/12/02 04:06:15;;;;;;;23.27;10.48;;;1.00;99.90;;;;;;6244268;28;20057;-89
2023/12/02 04:09:17;;;;;;;25.55;10.55;;;1.00;99.90;;;;;;6272234;28;20060;-86
2023/12/02 04:12:18;;;;;;;21.65;10.30;;;1.00;99.90;;;;;;6242632;28;20057;-87
2023/12/02 04:15:21;;;;;;;21.73;9.25;;;0.90;99.90;;;;;;6238804;28;20571;-87
2023/12/02 04:18:22;;;;;;;20.95;9.43;;;1.00;99.90;;;;;;6240513;28;20049;-85
2023/12/02 04:21:26;;;;;;;19.92;9.40;;;1.00;99.90;;;;;;6243243;28;20058;-85
2023/12/02 04:24:28;;;;;;;23.27;9.80;;;0.90;99.90;;;;;;6261387;28;20051;-85
2023/12/02 04:27:30;;;;;;;21.35;8.95;;;1.00;99.90;;;;;;6269412;28;20618;-85
2023/12/02 04:30:31;;;;;;;20.90;9.85;;;0.90;99.90;;;;;;6236171;28;20047;-85
2023/12/02 04:33:33;;;;;;;22.08;9.75;;;0.90;99.90;;;;;;6272107;28;20052;-86
2023/12/02 04:36:36;;;;;;;23.77;11.02;;;0.90;99.90;;;;;;6248786;28;20091;-85
2023/12/02 04:39:38;;;;;;;26.35;11.02;;;0.90;99.90;;;;;;6247501;28;20421;-85
2023/12/02 04:42:40;;;;;;;24.83;10.65;;;0.90;99.90;;;;;;6259759;28;20049;-85
2023/12/02 04:45:41;;;;;;;27.77;12.73;;;0.90;99.90;;;;;;6231658;28;20046;-85
2023/12/02 04:48:43;;;;;;;25.92;11.48;;;0.90;99.90;;;;;;6273583;28;20500;-86
2023/12/02 04:51:45;;;;;;;26.98;11.18;;;0.90;99.90;;;;;;6249173;28;20046;-85
2023/12/02 04:54:46;;;;;;;24.90;11.48;;;1.00;99.90;;;;;;6272858;28;20052;-85
2023/12/02 04:57:48;;;;;;;23.65;10.40;;;1.00;99.90;;;;;;6251338;28;20187;-87
2023/12/02 05:00:49;;;;;;;27.77;10.70;;;1.00;99.90;;;;;;6266271;28;20056;-85
2023/12/02 05:03:51;;;;;;;24.17;10.43;;;1.00;99.90;;;;;;6261738;28;20049;-82
2023/12/02 05:06:53;;;;;;;18.75;8.93;;;1.00;99.90;;;;;;6245511;28;20062;-88
2023/12/02 05:09:54;;;;;;;26.10;9.75;;;1.00;99.90;;;;;;6263967;28;20049;-88
2023/12/02 05:12:56;;;;;;;22.02;9.82;;;1.00;99.90;;;;;;6277385;28;20048;-81
2023/12/02 05:15:58;;;;;;;22.20;10.15;;;0.90;99.90;;;;;;6263212;28;20049;-89
2023/12/02 05:18:59;;;;;;;24.65;10.90;;;1.00;99.90;;;;;;6237977;28;20088;-89
2023/12/02 05:22:01;;;;;;;24.13;10.65;;;1.00;99.90;;;;;;6286831;28;20076;-88
2023/12/02 05:25:03;;;;;;;22.33;10.23;;;1.00;99.90;;;;;;6271663;28;20056;-87
2023/12/02 05:28:04;;;;;;;27.00;10.95;;;0.90;99.90;;;;;;6279110;28;20049;-89
2023/12/02 05:31:06;;;;;;;25.67;10.55;;;1.00;99.90;;;;;;6262669;28;20053;-88
2023/12/02 05:34:08;;;;;;;18.80;9.65;;;1.00;99.90;;;;;;6286184;28;20680;-89
2023/12/02 05:37:10;;;;;;;22.63;9.57;;;0.90;99.90;;;;;;6260776;28;20045;-88
2023/12/02 05:40:12;;;;;;;19.63;9.27;;;0.90;99.90;;;;;;6259888;28;20049;-88
2023/12/02 05:43:14;;;;;;;18.65;8.77;;;0.90;99.90;;;;;;6268591;28;20507;-88
2023/12/02 05:46:15;;;;;;;18.77;9.27;;;0.80;99.90;;;;;;6277669;28;20070;-88
2023/12/02 05:49:17;;;;;;;20.35;9.70;;;0.90;99.90;;;;;;6254419;28;20053;-88
2023/12/02 05:52:19;;;;;;;20.70;9.82;;;0.80;99.90;;;;;;6276761;28;20139;-88
2023/12/02 05:55:21;;;;;;;23.98;10.55;;;0.80;99.90;;;;;;6244153;28;20042;-88
2023/12/02 05:58:24;;;;;;;22.67;10.43;;;0.80;99.90;;;;;;6263095;28;20050;-88
2023/12/02 06:01:26;;;;;;;23.55;10.60;;;0.80;99.90;;;;;;6275996;28;20045;-88
2023/12/02 06:04:31;;;;;;;23.58;10.43;;;0.80;99.90;;;;;;6251513;28;20045;-87
2023/12/02 06:07:33;;;;;;;23.60;11.00;;;0.80;99.90;;;;;;6249521;28;20168;-89
2023/12/02 06:10:34;;;;;;;27.00;10.90;;;0.80;99.90;;;;;;6242473;28;20053;-88
2023/12/02 06:13:36;;;;;;;26.60;12.00;;;0.80;99.90;;;;;;6258924;28;20057;-88
2023/12/02 06:16:38;;;;;;;25.02;12.10;;;0.80;99.90;;;;;;6275450;28;20103;-88
2023/12/02 06:19:39;;;;;;;25.00;12.05;;;0.80;99.90;;;;;;6251953;28;20115;-88
2023/12/02 06:22:41;;;;;;;26.95;12.40;;;0.80;99.90;;;;;;6273469;28;20513;-88
2023/12/02 06:25:43;;;;;;;23.42;11.63;;;0.80;99.90;;;;;;6268757;28;20207;-86
2023/12/02 06:28:49;;;;;;;21.20;10.48;;;0.80;99.90;;;;;;6258634;28;20072;-87
2023/12/02 06:31:51;;;;;;;22.73;11.02;;;0.80;99.90;;;;;;6225822;28;20105;-87
2023/12/02 06:34:53;;;;;;;21.80;11.13;;;0.80;99.90;;;;;;6274212;28;20045;-87
2023/12/02 06:37:55;;;;;;;23.35;11.00;;;0.80;99.90;;;;;;6250104;28;20136;-87
2023/12/02 06:40:57;;;;;;;23.90;11.10;;;0.80;99.90;;;;;;6273921;28;20049;-86
2023/12/02 06:43:58;;;;;;;26.13;11.15;;;0.70;99.90;;;;;;6248557;28;20558;-86
2023/12/02 06:47:00;;;;;;;23.27;10.68;;;0.70;99.90;;;;;;6267325;28;20048;-86
2023/12/02 06:50:03;;;;;;;23.70;10.30;;;0.70;99.90;;;;;;6274102;28;20500;-86
2023/12/02 06:53:05;;;;;;;23.88;10.00;;;0.70;99.90;;;;;;6249837;28;20045;-86
2023/12/02 06:56:06;;;;;;;23.65;9.85;;;0.60;99.90;;;;;;6241850;28;20046;-87
2023/12/02 06:59:08;;;;;;;21.00;9.77;;;0.60;99.90;;;;;;6258112;28;20049;-87
2023/12/02 07:02:10;;;;;;;20.33;9.07;;;0.50;99.90;;;;;;6274653;28;20080;-87
2023/12/02 07:05:11;;;;;;;21.33;10.23;;;0.60;99.90;;;;;;6247392;28;20057;-86
2023/12/02 07:08:13;;;;;;;22.17;9.95;;;0.60;99.90;;;;;;6245162;28;20049;-86
2023/12/02 07:11:14;;;;;;;22.38;10.38;;;0.60;99.90;;;;;;6259734;28;20080;-86
2023/12/02 07:14:16;;;;;;;22.30;10.35;;;0.60;99.90;;;;;;6250451;28;20412;-86
2023/12/02 07:17:18;;;;;;;24.27;10.95;;;0.60;99.90;;;;;;6273776;28;20412;-87
2023/12/02 07:20:19;;;;;;;25.30;11.45;;;0.70;99.90;;;;;;6250529;28;20068;-87
2023/12/02 07:23:21;;;;;;;25.90;11.57;;;0.60;99.90;;;;;;6271691;28;20059;-87
2023/12/02 07:26:25;;;;;;;26.48;11.98;;;0.60;99.90;;;;;;6248605;28;20061;-88
2023/12/02 07:29:26;;;;;;;25.95;11.45;;;0.60;99.90;;;;;;6253183;28;20041;-86
2023/12/02 07:32:31;;;;;;;26.02;11.48;;;0.50;99.90;;;;;;6273402;28;20056;-86
2023/12/02 07:35:32;;;;;;;23.60;11.32;;;0.50;99.90;;;;;;6250022;28;20041;-87
2023/12/02 07:38:35;;;;;;;25.38;11.98;;;0.50;99.90;;;;;;6271917;28;20138;-85
2023/12/02 07:41:36;;;;;;;35.67;16.33;;;0.50;99.90;;;;;;6248918;28;20046;-85
2023/12/02 07:44:38;;;;;;;22.10;11.07;;;0.50;99.90;;;;;;6238712;28;20054;-87
2023/12/02 07:47:40;;;;;;;23.50;11.27;;;0.60;99.90;;;;;;6262442;28;20061;-88
2023/12/02 07:50:42;;;;;;;23.98;11.30;;;0.60;99.90;;;;;;6270326;28;20429;-87
2023/12/02 07:53:43;;;;;;;24.00;11.68;;;0.60;99.90;;;;;;6247258;28;20049;-87
2023/12/02 07:56:45;;;;;;;25.90;12.65;;;0.60;99.90;;;;;;6270980;28;20056;-87
2023/12/02 07:59:47;;;;;;;25.60;12.82;;;0.60;99.90;;;;;;6246042;28;20049;-89
2023/12/02 08:02:48;;;;;;;25.95;12.05;;;0.70;99.90;;;;;;6275137;28;20053;-86
2023/12/02 08:05:50;;;;;;;25.45;12.38;;;0.60;99.90;;;;;;6251932;28;20056;-88
2023/12/02 08:08:53;;;;;;;24.73;12.60;;;0.60;99.90;;;;;;6264301;28;20142;-88
2023/12/02 08:11:55;;;;;;;25.30;12.50;;;0.60;99.90;;;;;;6277566;28;20163;-89
2023/12/02 08:14:57;;;;;;;24.65;11.38;;;0.60;99.90;;;;;;6251329;28;20089;-89
2023/12/02 08:17:58;;;;;;;26.20;12.02;;;0.60;99.90;;;;;;6278709;28;20052;-88
2023/12/02 08:21:00;;;;;;;26.10;11.88;;;0.60;99.90;;;;;;6253018;28;20057;-89
2023/12/02 08:24:04;;;;;;;25.38;11.85;;;0.50;99.90;;;;;;6264502;28;20138;-88
2023/12/02 08:27:05;;;;;;;27.55;12.00;;;0.50;99.90;;;;;;6277017;28;20079;-87
2023/12/02 08:30:07;;;;;;;25.55;12.43;;;0.60;99.90;;;;;;6251550;28;20060;-87
2023/12/02 08:33:09;;;;;;;24.45;11.77;;;0.60;99.90;;;;;;6278179;28;20049;-88
2023/12/02 08:36:10;;;;;;;24.58;11.40;;;0.50;99.90;;;;;;6252152;28;20477;-88
2023/12/02 08:39:12;;;;;;;23.88;11.40;;;0.60;99.90;;;;;;6250879;28;20456;-86
2023/12/02 08:42:14;;;;;;;22.08;10.65;;;0.60;99.90;;;;;;6276784;28;20060;-86
2023/12/02 08:45:16;;;;;;;20.92;10.65;;;0.50;99.90;;;;;;6246747;28;20058;-86
2023/12/02 08:48:18;;;;;;;24.52;11.60;;;0.50;99.90;;;;;;6254379;28;20462;-87
2023/12/02 08:51:21;;;;;;;20.45;10.57;;;0.50;99.90;;;;;;6250704;28;20147;-86
2023/12/02 08:54:22;;;;;;;22.27;11.00;;;0.50;99.90;;;;;;6277184;28;20048;-87
2023/12/02 08:57:24;;;;;;;22.85;10.32;;;0.50;99.90;;;;;;6252837;28;20147;-88
2023/12/02 09:00:26;;;;;;;20.85;10.27;;;0.50;99.90;;;;;;6272923;28;20056;-89
2023/12/02 09:03:27;;;;;;;21.75;10.32;;;0.60;99.90;;;;;;6230518;28;20049;-89
2023/12/02 09:06:29;;;;;;;20.58;10.82;;;0.70;99.90;;;;;;6261038;28;20053;-89
2023/12/02 09:09:31;;;;;;;19.73;9.30;;;0.70;99.90;;;;;;6275296;28;20041;-86
2023/12/02 09:12:32;;;;;;;19.75;9.60;;;0.80;99.90;;;;;;6254030;28;20497;-86
2023/12/02 09:15:34;;;;;;;22.33;10.68;;;0.80;99.90;;;;;;6249397;28;20045;-89
2023/12/02 09:18:36;;;;;;;22.92;10.80;;;0.70;99.90;;;;;;6228391;28;20072;-89
2023/12/02 09:21:37;;;;;;;21.48;10.65;;;0.80;99.90;;;;;;6275971;28;20179;-88
2023/12/02 09:24:40;;;;;;;21.08;10.48;;;0.80;99.90;;;;;;6252968;28;20049;-88
2023/12/02 09:27:42;;;;;;;22.63;10.63;;;0.80;99.90;;;;;;6268386;28;20717;-78
2023/12/02 09:30:44;;;;;;;21.85;11.02;;;0.80;99.90;;;;;;6221273;28;20046;-88
2023/12/02 09:33:47;;;;;;;23.73;11.43;;;0.70;99.90;;;;;;6223618;28;20064;-88
2023/12/02 09:36:49;;;;;;;23.77;11.15;;;0.60;99.90;;;;;;6272701;28;20071;-88
2023/12/02 09:39:51;;;;;;;22.02;11.88;;;0.70;99.90;;;;;;6248333;28;20057;-88
2023/12/02 09:42:52;;;;;;;25.45;11.18;;;0.80;99.90;;;;;;6264384;28;20046;-89
2023/12/02 09:45:54;;;;;;;26.83;12.40;;;0.90;99.90;;;;;;6243726;28;20424;-88
2023/12/02 09:48:55;;;;;;;27.20;12.82;;;0.80;99.90;;;;;;6227020;28;20054;-87
2023/12/02 09:51:57;;;;;;;27.90;12.73;;;0.80;99.90;;;;;;6275260;28;20053;-89
2023/12/02 09:54:59;;;;;;;26.13;12.55;;;0.80;99.90;;;;;;6251526;28;20053;-89
2023/12/02 09:58:00;;;;;;;28.73;13.48;;;0.90;99.90;;;;;;6266778;28;20068;-90
2023/12/02 10:01:02;;;;;;;27.27;12.70;;;0.90;99.90;;;;;;6241804;28;20050;-89
2023/12/02 10:04:04;;;;;;;25.05;12.00;;;0.90;99.90;;;;;;6276544;28;20045;-89
2023/12/02 10:07:06;;;;;;;24.65;11.88;;;1.00;99.90;;;;;;6249941;28;20065;-87
2023/12/02 10:10:13;;;;;;;31.08;12.68;;;1.00;99.90;;;;;;6275621;28;20049;-87
2023/12/02 10:13:15;;;;;;;28.08;12.82;;;1.10;99.90;;;;;;6243044;28;20057;-89
2023/12/02 10:16:16;;;;;;;29.30;13.63;;;1.10;99.90;;;;;;6259299;28;20049;-87
2023/12/02 10:19:18;;;;;;;32.95;13.93;;;1.20;99.90;;;;;;6260009;28;20053;-89
2023/12/02 10:22:20;;;;;;;30.73;13.90;;;1.10;99.90;;;;;;6275789;28;20049;-91
2023/12/02 10:25:21;;;;;;;29.13;13.43;;;1.20;99.90;;;;;;6252174;28;20057;-88
2023/12/02 10:28:23;;;;;;;31.90;13.13;;;1.10;99.90;;;;;;6245411;28;20053;-89
2023/12/02 10:31:25;;;;;;;32.55;14.75;;;1.10;99.90;;;;;;6250251;28;20512;-89
2023/12/02 10:34:28;;;;;;;30.77;13.57;;;1.20;99.90;;;;;;6275062;28;20052;-89
2023/12/02 10:37:30;;;;;;;30.50;13.82;;;1.30;99.90;;;;;;6249724;28;20374;-90
2023/12/02 10:40:32;;;;;;;29.90;13.55;;;1.20;99.90;;;;;;6278444;28;20053;-90
2023/12/02 10:43:34;;;;;;;31.40;14.13;;;1.10;99.90;;;;;;6262583;28;20499;-88
2023/12/02 10:46:36;;;;;;;32.53;13.95;;;1.20;99.90;;;;;;6258427;28;20098;-88
2023/12/02 10:49:38;;;;;;;32.67;15.45;;;1.20;99.90;;;;;;6273802;28;20054;-89
2023/12/02 10:52:39;;;;;;;31.98;14.95;;;1.20;99.90;;;;;;6257208;28;20049;-90
2023/12/02 10:55:41;;;;;;;33.38;14.63;;;1.30;99.90;;;;;;6277209;28;20049;-91
2023/12/02 10:58:43;;;;;;;33.83;14.95;;;1.40;99.90;;;;;;6262145;28;20419;-86
2023/12/02 11:01:45;;;;;;;32.80;15.05;;;1.70;99.90;;;;;;6247529;28;20061;-89
2023/12/02 11:04:48;;;;;;;32.88;15.13;;;1.90;99.90;;;;;;6247195;28;20199;-86
2023/12/02 11:07:49;;;;;;;31.55;14.73;;;1.90;99.90;;;;;;6270088;28;20062;-92
2023/12/02 11:10:51;;;;;;;31.48;14.18;;;1.80;99.90;;;;;;6266612;28;20056;-92
2023/12/02 11:13:52;;;;;;;32.00;14.57;;;1.70;99.90;;;;;;6259729;28;20095;-93
2023/12/02 11:16:54;;;;;;;29.63;14.18;;;1.60;99.90;;;;;;6276980;28;20049;-93
2023/12/02 11:19:56;;;;;;;30.05;13.32;;;1.60;99.90;;;;;;6257866;28;20056;-91
2023/12/02 11:22:57;;;;;;;31.10;14.20;;;1.70;99.90;;;;;;6234508;28;20205;-91
2023/12/02 11:25:59;;;;;;;28.40;14.00;;;1.70;99.90;;;;;;6274187;28;20472;-92
2023/12/02 11:29:01;;;;;;;33.95;14.30;;;1.80;99.90;;;;;;6263852;28;20052;-90
2023/12/02 11:32:13;;;;;;;33.40;15.63;;;1.90;99.90;;;;;;6241075;28;20056;-91
2023/12/02 11:35:14;;;;;;;33.50;15.32;;;1.90;99.90;;;;;;6256397;28;20104;-91
2023/12/02 11:38:19;;;;;;;34.55;16.48;;;1.90;99.90;;;;;;6253011;28;20038;-91
2023/12/02 11:41:21;;;;;;;39.42;16.80;;;2.00;99.90;;;;;;6250906;28;20488;-91
2023/12/02 11:44:23;;;;;;;38.45;16.50;;;1.90;99.90;;;;;;6268210;28;20053;-95
2023/12/02 11:47:24;;;;;;;36.33;15.48;;;1.90;99.90;;;;;;6259217;28;20053;-90
2023/12/02 11:50:26;;;;;;;35.00;16.00;;;1.80;99.90;;;;;;6275369;28;20488;-90
2023/12/02 11:53:27;;;;;;;35.00;15.18;;;1.80;99.90;;;;;;6244753;28;20057;-91
2023/12/02 11:56:29;;;;;;;32.42;14.30;;;1.80;99.90;;;;;;6247048;28;20053;-82
2023/12/02 11:59:30;;;;;;;31.83;14.15;;;1.70;99.90;;;;;;6267284;28;20103;-83
2023/12/02 12:02:32;;;;;;;32.65;14.48;;;1.90;99.90;;;;;;6253526;28;20052;-91
2023/12/02 12:05:34;;;;;;;30.00;14.00;;;2.00;99.90;;;;;;6278940;28;20488;-89
2023/12/02 12:08:37;;;;;;;32.50;14.25;;;2.00;99.90;;;;;;6248358;28;20161;-89
2023/12/02 12:11:38;;;;;;;32.85;14.10;;;1.90;99.90;;;;;;6270762;28;20072;-89
2023/12/02 12:14:40;;;;;;;32.13;14.77;;;1.90;99.90;;;;;;6249043;28;20052;-90
2023/12/02 12:17:41;;;;;;;31.38;13.98;;;1.70;99.90;;;;;;6274720;28;20053;-90
2023/12/02 12:20:43;;;;;;;30.83;14.30;;;1.70;99.90;;;;;;6250765;28;20513;-89
2023/12/02 12:23:45;;;;;;;31.35;14.50;;;1.70;99.90;;;;;;6274050;28;20179;-90
2023/12/02 12:26:47;;;;;;;27.95;12.48;;;1.80;99.90;;;;;;6249961;28;20728;-89
2023/12/02 12:29:48;;;;;;;26.38;11.88;;;1.80;99.90;;;;;;6270084;28;20531;-83
2023/12/02 12:32:50;;;;;;;25.73;10.85;;;1.60;99.90;;;;;;6236709;28;20523;-82
2023/12/02 12:35:52;;;;;;;26.77;12.15;;;1.60;99.90;;;;;;6271351;28;20060;-91
2023/12/02 12:38:53;;;;;;;23.48;10.38;;;1.70;99.90;;;;;;6249222;28;20493;-91
2023/12/02 12:41:55;;;;;;;26.30;11.93;;;1.80;99.90;;;;;;6274206;28;20064;-92
2023/12/02 12:44:56;;;;;;;24.27;11.52;;;1.80;99.90;;;;;;6245232;28;20060;-91
2023/12/02 12:47:58;;;;;;;23.90;11.77;;;1.80;99.90;;;;;;6266208;28;20501;-92
2023/12/02 12:51:00;;;;;;;27.75;11.60;;;1.80;99.90;;;;;;6278290;28;20131;-91
2023/12/02 12:54:05;;;;;;;27.45;12.75;;;1.80;99.90;;;;;;6255327;28;20103;-93
2023/12/02 12:57:07;;;;;;;20.67;10.13;;;1.80;99.90;;;;;;6279347;28;20041;-89
2023/12/02 13:00:10;;;;;;;26.77;11.63;;;1.80;99.90;;;;;;6250930;28;20045;-92
2023/12/02 13:03:11;;;;;;;29.40;12.85;;;1.90;99.90;;;;;;6230945;28;20099;-88
2023/12/02 13:06:14;;;;;;;28.13;12.52;;;1.90;99.90;;;;;;6276608;28;20194;-91
2023/12/02 13:09:16;;;;;;;30.45;13.68;;;1.90;99.90;;;;;;6253798;28;20053;-90
2023/12/02 13:12:18;;;;;;;32.58;14.32;;;1.90;99.90;;;;;;6275289;28;20059;-89
2023/12/02 13:15:20;;;;;;;30.92;13.98;;;1.70;99.90;;;;;;6249379;28;20049;-89
2023/12/02 13:18:23;;;;;;;31.23;13.52;;;1.80;99.90;;;;;;6228037;28;20053;-91
2023/12/02 13:21:25;;;;;;;34.65;14.77;;;1.70;99.90;;;;;;6275533;28;20052;-90
2023/12/02 13:24:27;;;;;;;30.42;13.80;;;1.80;99.90;;;;;;6252595;28;20543;-89
2023/12/02 13:27:28;;;;;;;32.22;14.02;;;1.80;99.90;;;;;;6270411;28;20045;-91
2023/12/02 13:30:30;;;;;;;33.55;14.57;;;1.70;99.90;;;;;;6250124;28;20515;-90
2023/12/02 13:33:32;;;;;;;29.20;13.75;;;1.80;99.90;;;;;;6257500;28;20053;-89
2023/12/02 13:36:34;;;;;;;33.85;15.07;;;1.90;99.90;;;;;;6286159;28;20112;-90
2023/12/02 13:39:39;;;;;;;35.58;16.00;;;2.00;99.90;;;;;;6262810;28;20060;-89
2023/12/02 13:42:41;;;;;;;37.00;15.43;;;1.90;99.90;;;;;;6283523;28;20073;-91
2023/12/02 13:45:42;;;;;;;38.85;17.17;;;2.00;99.90;;;;;;6254357;28;20504;-89
2023/12/02 13:48:44;;;;;;;39.47;16.95;;;2.00;99.90;;;;;;6228793;28;20050;-89
2023/12/02 13:51:46;;;;;;;37.85;16.65;;;1.90;99.90;;;;;;6277277;28;20083;-89
2023/12/02 13:54:47;;;;;;;35.80;16.08;;;1.90;99.90;;;;;;6251790;28;20420;-89
2023/12/02 13:57:51;;;;;;;41.05;17.35;;;1.90;99.90;;;;;;6270744;28;20115;-89
2023/12/02 14:00:53;;;;;;;38.17;16.55;;;1.90;99.90;;;;;;6254680;28;20057;-90
2023/12/02 14:03:54;;;;;;;33.63;15.13;;;1.90;99.90;;;;;;6275387;28;20424;-89
2023/12/02 14:06:59;;;;;;;42.25;17.33;;;1.80;99.90;;;;;;6248244;28;20136;-88
2023/12/02 14:10:00;;;;;;;39.55;16.73;;;1.80;99.90;;;;;;6249645;28;20455;-83
2023/12/02 14:13:05;;;;;;;36.88;17.85;;;1.70;99.90;;;;;;6266897;28;20493;-88
2023/12/02 14:16:07;;;;;;;35.00;15.57;;;1.80;99.90;;;;;;6249545;28;20084;-90
2023/12/02 14:19:09;;;;;;;36.47;16.38;;;1.80;99.90;;;;;;6252049;28;20128;-92
2023/12/02 14:22:10;;;;;;;32.03;13.77;;;1.80;99.90;;;;;;6276596;28;20049;-92
2023/12/02 14:25:12;;;;;;;31.95;14.75;;;1.80;99.90;;;;;;6278134;28;20049;-91
2023/12/02 14:28:14;;;;;;;30.60;14.40;;;1.80;99.90;;;;;;6257597;28;20140;-91
2023/12/02 14:31:17;;;;;;;31.23;13.88;;;1.90;99.90;;;;;;6252342;28;20049;-91
2023/12/02 14:34:19;;;;;;;35.33;15.38;;;1.80;99.90;;;;;;6280354;28;20049;-92
2023/12/02 14:37:22;;;;;;;32.28;13.93;;;1.70;99.90;;;;;;6251173;28;20042;-91
2023/12/02 14:40:24;;;;;;;30.58;13.88;;;1.60;99.90;;;;;;6274758;28;20053;-90
2023/12/02 14:43:25;;;;;;;30.02;13.90;;;1.60;99.90;;;;;;6260857;28;20127;-91
2023/12/02 14:46:27;;;;;;;32.15;14.23;;;1.50;99.90;;;;;;6271277;22;20907;-80
2023/12/02 14:49:29;;;;;;;36.22;14.13;;;1.50;99.90;;;;;;6244901;28;20492;-80
2023/12/02 14:52:31;;;;;;;33.33;15.23;;;1.40;99.90;;;;;;6267987;28;20049;-80
2023/12/02 14:55:32;;;;;;;30.65;14.38;;;1.40;99.90;;;;;;6268847;28;20052;-80
2023/12/02 14:58:35;;;;;;;33.13;14.27;;;1.40;99.90;;;;;;6257148;28;20371;-79
2023/12/02 15:01:40;;;;;;;36.30;15.15;;;1.40;99.90;;;;;;6268795;28;20103;-80
2023/12/02 15:04:41;;;;;;;34.30;15.38;;;1.40;99.90;;;;;;6244584;28;20057;-79
2023/12/02 15:07:43;;;;;;;38.83;15.77;;;1.40;99.90;;;;;;6267280;28;20507;-80
2023/12/02 15:10:45;;;;;;;37.38;15.77;;;1.40;99.90;;;;;;6243348;28;20057;-80
2023/12/02 15:13:46;;;;;;;39.55;16.73;;;1.30;99.90;;;;;;6252737;28;20061;-80
2023/12/02 15:16:50;;;;;;;38.55;17.17;;;1.30;99.90;;;;;;6267827;28;20057;-80
2023/12/02 15:19:51;;;;;;;41.15;18.75;;;1.30;99.90;;;;;;6244102;28;20648;-80
2023/12/02 15:22:53;;;;;;;47.88;20.05;;;1.20;99.90;;;;;;6267754;28;20528;-80
2023/12/02 15:25:55;;;;;;;51.20;20.30;;;1.30;99.90;;;;;;6243860;28;20417;-80
2023/12/02 15:28:57;;;;;;;47.92;19.73;;;1.20;99.90;;;;;;6252522;28;20733;-81
2023/12/02 15:31:59;;;;;;;42.42;18.45;;;1.20;99.90;;;;;;6266377;28;20045;-80
2023/12/02 15:35:00;;;;;;;40.00;18.13;;;1.20;99.90;;;;;;6244220;28;20060;-81